createdAt,value
2018-11-05T00:02:18.797Z,17.30
2018-11-05T00:04:46.460Z,17.26
2018-11-05T00:07:14.078Z,17.27
2018-11-05T00:09:41.850Z,17.28
2018-11-05T00:12:09.517Z,17.27
2018-11-05T00:14:37.110Z,17.27
2018-11-05T00:17:04.777Z,17.27
2018-11-05T00:19:32.376Z,17.27
2018-11-05T00:21:59.994Z,17.28
2018-11-05T00:24:28.492Z,17.27
2018-11-05T00:26:56.147Z,17.28
2018-11-05T00:29:23.769Z,17.28
2018-11-05T00:34:41.822Z,17.28
2018-11-05T00:37:09.501Z,17.28
2018-11-05T00:39:37.070Z,17.27
2018-11-05T00:42:04.736Z,17.26
2018-11-05T00:44:32.319Z,17.25
2018-11-05T00:46:59.988Z,17.26
2018-11-05T00:49:27.569Z,17.26
2018-11-05T00:51:55.271Z,17.27
2018-11-05T00:54:22.897Z,17.26
2018-11-05T00:56:50.511Z,17.23
2018-11-05T00:59:18.176Z,17.23
2018-11-05T01:01:45.789Z,17.21
2018-11-05T01:04:13.710Z,17.25
2018-11-05T01:06:41.366Z,17.24
2018-11-05T01:09:09.428Z,17.24
2018-11-05T01:11:37.617Z,17.25
2018-11-05T01:14:05.680Z,17.25
2018-11-05T01:16:33.348Z,17.24
2018-11-05T01:19:00.986Z,17.24
2018-11-05T01:21:28.685Z,17.25
2018-11-05T01:23:56.336Z,17.25
2018-11-05T01:26:24.039Z,17.23
2018-11-05T01:28:51.680Z,17.25
2018-11-05T01:31:19.267Z,17.23
2018-11-05T01:33:46.868Z,17.22
2018-11-05T01:36:14.498Z,17.22
2018-11-05T01:38:42.117Z,17.21
2018-11-05T01:41:10.233Z,17.23
2018-11-05T01:43:37.896Z,17.21
2018-11-05T01:46:05.524Z,17.22
2018-11-05T01:48:33.190Z,17.23
2018-11-05T01:51:00.827Z,17.21
2018-11-05T01:53:28.461Z,17.21
2018-11-05T01:55:56.085Z,17.20
2018-11-05T01:58:23.765Z,17.20
2018-11-05T02:00:51.405Z,17.21
2018-11-05T02:03:19.034Z,17.25
2018-11-05T02:05:46.648Z,17.24
2018-11-05T02:08:14.205Z,17.22
2018-11-05T02:10:41.888Z,17.21
2018-11-05T02:13:09.519Z,17.21
2018-11-05T02:15:37.183Z,17.22
2018-11-05T02:18:04.861Z,17.22
2018-11-05T02:20:32.452Z,17.20
2018-11-05T02:23:00.122Z,17.21
2018-11-05T02:25:27.723Z,17.21
2018-11-05T02:27:55.386Z,17.21
2018-11-05T02:30:23.083Z,17.20
2018-11-05T02:32:50.723Z,17.19
2018-11-05T02:35:18.770Z,17.22
2018-11-05T02:37:47.037Z,17.22
2018-11-05T02:40:21.252Z,17.22
2018-11-05T02:42:49.584Z,17.18
2018-11-05T02:45:18.112Z,17.21
2018-11-05T02:47:45.739Z,17.16
2018-11-05T02:50:13.809Z,17.18
2018-11-05T02:52:42.452Z,17.20
2018-11-05T02:55:10.196Z,17.18
2018-11-05T02:57:37.824Z,17.21
2018-11-05T03:00:08.047Z,17.19
2018-11-05T03:02:35.677Z,17.21
2018-11-05T03:05:03.506Z,17.21
2018-11-05T03:07:31.150Z,17.16
2018-11-05T03:09:58.793Z,17.19
2018-11-05T03:12:26.376Z,17.19
2018-11-05T03:14:53.997Z,17.20
2018-11-05T03:17:21.671Z,17.20
2018-11-05T03:19:49.357Z,17.20
2018-11-05T03:22:16.952Z,17.19
2018-11-05T03:24:44.549Z,17.19
2018-11-05T03:27:12.184Z,17.20
2018-11-05T03:29:39.855Z,17.21
2018-11-05T03:32:07.560Z,17.20
2018-11-05T03:34:35.184Z,17.19
2018-11-05T03:37:02.930Z,17.17
2018-11-05T03:39:30.624Z,17.19
2018-11-05T03:41:58.268Z,17.20
2018-11-05T03:44:25.884Z,17.20
2018-11-05T03:46:53.575Z,17.20
2018-11-05T03:49:21.204Z,17.20
2018-11-05T03:51:48.870Z,17.20
2018-11-05T03:54:16.526Z,17.20
2018-11-05T03:56:44.403Z,17.16
2018-11-05T03:59:11.983Z,17.17
2018-11-05T04:01:39.598Z,17.20
2018-11-05T04:04:07.224Z,17.20
2018-11-05T04:06:34.917Z,17.19
2018-11-05T04:09:03.118Z,17.18
2018-11-05T04:11:30.704Z,17.17
2018-11-05T04:13:58.333Z,17.20
2018-11-05T04:16:25.916Z,17.22
2018-11-05T04:18:53.657Z,17.20
2018-11-05T04:21:21.277Z,17.20
2018-11-05T04:23:48.954Z,17.20
2018-11-05T04:26:16.561Z,17.19
2018-11-05T04:28:44.186Z,17.17
2018-11-05T04:31:11.826Z,17.16
2018-11-05T04:33:39.442Z,17.14
2018-11-05T04:36:07.127Z,17.17
2018-11-05T04:38:34.720Z,17.19
2018-11-05T04:41:02.366Z,17.19
2018-11-05T04:43:29.976Z,17.19
2018-11-05T04:45:57.653Z,17.21
2018-11-05T04:48:25.252Z,17.22
2018-11-05T04:50:52.879Z,17.22
2018-11-05T04:53:20.476Z,17.23
2018-11-05T04:55:48.192Z,17.24
2018-11-05T04:58:15.751Z,17.24
2018-11-05T05:00:43.368Z,17.24
2018-11-05T05:03:11.054Z,17.23
2018-11-05T05:05:38.672Z,17.24
2018-11-05T05:08:06.520Z,17.25
2018-11-05T05:10:34.129Z,17.26
2018-11-05T05:13:01.807Z,17.28
2018-11-05T05:15:29.407Z,17.30
2018-11-05T05:17:57.057Z,17.33
2018-11-05T05:20:24.707Z,17.34
2018-11-05T05:22:52.586Z,17.35
2018-11-05T05:25:20.078Z,17.35
2018-11-05T05:27:47.744Z,17.37
2018-11-05T05:30:16.437Z,17.38
2018-11-05T05:32:44.645Z,17.37
2018-11-05T05:35:12.280Z,17.36
2018-11-05T05:37:40.581Z,17.39
2018-11-05T05:40:08.508Z,17.39
2018-11-05T05:42:36.254Z,17.37
2018-11-05T05:45:04.697Z,17.40
2018-11-05T05:47:32.349Z,17.39
2018-11-05T05:50:00.088Z,17.41
2018-11-05T05:52:27.690Z,17.41
2018-11-05T05:54:55.320Z,17.42
2018-11-05T05:57:22.945Z,17.41
2018-11-05T05:59:50.664Z,17.42
2018-11-05T06:02:18.214Z,17.42
2018-11-05T06:04:45.816Z,17.39
2018-11-05T06:07:13.419Z,17.44
2018-11-05T06:09:47.697Z,17.45
2018-11-05T06:12:15.335Z,17.45
2018-11-05T06:14:42.980Z,17.44
2018-11-05T06:17:10.624Z,17.43
2018-11-05T06:19:38.304Z,17.42
2018-11-05T06:22:06.345Z,17.42
2018-11-05T06:24:33.988Z,17.42
2018-11-05T06:27:01.638Z,17.39
2018-11-05T06:29:29.233Z,17.42
2018-11-05T06:31:56.838Z,17.42
2018-11-05T06:34:24.431Z,17.40
2018-11-05T06:36:52.030Z,17.42
2018-11-05T06:39:19.636Z,17.44
2018-11-05T06:41:47.320Z,17.43
2018-11-05T06:44:14.952Z,17.43
2018-11-05T06:46:42.531Z,17.44
2018-11-05T06:49:10.203Z,17.44
2018-11-05T06:51:37.810Z,17.45
2018-11-05T06:54:05.548Z,17.45
2018-11-05T06:56:33.508Z,17.46
2018-11-05T06:59:01.130Z,17.47
2018-11-05T07:01:29.865Z,17.47
2018-11-05T07:03:57.593Z,17.47
2018-11-05T07:06:25.214Z,17.47
2018-11-05T07:08:52.825Z,17.48
2018-11-05T07:11:20.544Z,17.48
2018-11-05T07:13:48.166Z,17.48
2018-11-05T07:16:15.737Z,17.46
2018-11-05T07:18:43.459Z,17.46
2018-11-05T07:21:10.948Z,17.45
2018-11-05T07:23:38.593Z,17.47
2018-11-05T07:26:06.704Z,17.48
2018-11-05T07:28:34.337Z,17.48
2018-11-05T07:31:01.923Z,17.48
2018-11-05T07:33:29.634Z,17.49
2018-11-05T07:35:57.276Z,17.48
2018-11-05T07:38:24.923Z,17.47
2018-11-05T07:40:52.553Z,17.46
2018-11-05T07:43:20.180Z,17.44
2018-11-05T07:45:47.764Z,17.45
2018-11-05T07:48:15.404Z,17.45
2018-11-05T07:50:43.031Z,17.43
2018-11-05T07:53:10.644Z,17.46
2018-11-05T07:55:38.270Z,17.44
2018-11-05T07:58:05.919Z,17.44
2018-11-05T08:00:39.010Z,17.44
2018-11-05T08:03:06.687Z,17.45
2018-11-05T08:05:34.284Z,17.45
2018-11-05T08:08:01.926Z,17.46
2018-11-05T08:10:29.557Z,17.47
2018-11-05T08:13:03.923Z,17.46
2018-11-05T08:15:31.556Z,17.45
2018-11-05T08:17:59.195Z,17.43
2018-11-05T08:20:26.911Z,17.43
2018-11-05T08:22:54.494Z,17.46
2018-11-05T08:25:22.133Z,17.47
2018-11-05T08:27:49.786Z,17.48
2018-11-05T08:30:19.663Z,17.48
2018-11-05T08:32:47.299Z,17.46
2018-11-05T08:35:15.104Z,17.45
2018-11-05T08:37:43.744Z,17.44
2018-11-05T08:40:16.581Z,17.45
2018-11-05T08:42:44.822Z,17.45
2018-11-05T08:45:13.519Z,17.47
2018-11-05T08:47:41.500Z,17.49
2018-11-05T08:50:11.450Z,17.47
2018-11-05T08:52:38.993Z,17.47
2018-11-05T08:55:08.768Z,17.52
2018-11-05T08:57:36.438Z,17.53
2018-11-05T09:00:04.644Z,17.53
2018-11-05T09:02:32.301Z,17.52
2018-11-05T09:04:59.976Z,17.53
2018-11-05T09:07:27.699Z,17.53
2018-11-05T09:10:02.145Z,17.55
2018-11-05T09:12:29.793Z,17.56
2018-11-05T09:14:57.384Z,17.57
2018-11-05T09:17:25.081Z,17.57
2018-11-05T09:19:52.798Z,17.58
2018-11-05T09:22:20.452Z,17.59
2018-11-05T09:24:48.149Z,17.58
2018-11-05T09:27:15.730Z,17.60
2018-11-05T09:29:43.345Z,17.61
2018-11-05T09:32:10.977Z,17.61
2018-11-05T09:34:38.551Z,17.62
2018-11-05T09:37:06.203Z,17.59
2018-11-05T09:39:33.816Z,17.64
2018-11-05T09:42:01.464Z,17.63
2018-11-05T09:44:29.105Z,17.65
2018-11-05T09:46:56.790Z,17.62
2018-11-05T09:49:24.465Z,17.65
2018-11-05T09:51:52.101Z,17.62
2018-11-05T09:54:19.693Z,17.67
2018-11-05T09:56:47.364Z,17.68
2018-11-05T09:59:15.060Z,17.69
2018-11-05T10:01:42.663Z,17.70
2018-11-05T10:04:10.468Z,17.70
2018-11-05T10:06:37.914Z,17.70
2018-11-05T10:09:08.319Z,17.73
2018-11-05T10:11:35.947Z,17.73
2018-11-05T10:14:03.623Z,17.73
2018-11-05T10:16:31.389Z,17.73
2018-11-05T10:18:59.037Z,17.75
2018-11-05T10:21:26.672Z,17.75
2018-11-05T10:23:54.347Z,17.77
2018-11-05T10:26:22.092Z,17.76
2018-11-05T10:28:49.565Z,17.77
2018-11-05T10:31:22.814Z,17.77
2018-11-05T10:33:50.450Z,17.77
2018-11-05T10:36:18.131Z,17.78
2018-11-05T10:38:45.793Z,17.78
2018-11-05T10:41:13.472Z,17.78
2018-11-05T10:43:41.211Z,17.80
2018-11-05T10:46:08.909Z,17.80
2018-11-05T10:48:36.501Z,17.82
2018-11-05T10:51:04.272Z,17.84
2018-11-05T10:53:31.853Z,17.84
2018-11-05T10:55:59.445Z,17.84
2018-11-05T10:58:27.086Z,17.85
2018-11-05T11:01:00.201Z,17.85
2018-11-05T11:03:38.330Z,17.84
2018-11-05T11:06:07.339Z,17.85
2018-11-05T11:08:34.973Z,17.84
2018-11-05T11:11:02.579Z,17.85
2018-11-05T11:13:30.240Z,17.86
2018-11-05T11:15:57.872Z,17.87
2018-11-05T11:18:25.512Z,17.87
2018-11-05T11:20:53.249Z,17.87
2018-11-05T11:23:20.794Z,17.87
2018-11-05T11:25:48.491Z,17.88
2018-11-05T11:28:16.148Z,17.90
2018-11-05T11:30:43.803Z,17.92
2018-11-05T11:33:11.468Z,17.91
2018-11-05T11:35:39.056Z,17.92
2018-11-05T11:38:06.697Z,17.92
2018-11-05T11:40:34.304Z,17.89
2018-11-05T11:43:01.922Z,17.94
2018-11-05T11:45:29.545Z,17.94
2018-11-05T11:47:57.117Z,17.94
2018-11-05T11:50:24.744Z,17.93
2018-11-05T11:52:52.599Z,17.92
2018-11-05T11:55:21.411Z,17.92
2018-11-05T11:57:49.016Z,17.93
2018-11-05T12:00:20.582Z,17.93
2018-11-05T12:02:48.767Z,17.93
2018-11-05T12:05:16.593Z,17.94
2018-11-05T12:07:44.128Z,17.96
2018-11-05T12:10:16.132Z,17.95
2018-11-05T12:12:44.132Z,17.98
2018-11-05T12:15:12.482Z,17.98
2018-11-05T12:17:40.744Z,17.98
2018-11-05T12:20:10.772Z,17.99
2018-11-05T12:22:38.449Z,17.98
2018-11-05T12:25:06.340Z,17.98
2018-11-05T12:27:34.027Z,17.98
2018-11-05T12:30:01.666Z,17.95
2018-11-05T12:32:29.346Z,17.98
2018-11-05T12:34:56.976Z,17.96
2018-11-05T12:37:24.812Z,17.96
2018-11-05T12:39:52.387Z,17.98
2018-11-05T12:42:20.013Z,17.98
2018-11-05T12:44:47.706Z,17.99
2018-11-05T12:47:15.305Z,17.98
2018-11-05T12:49:42.963Z,17.96
2018-11-05T12:52:10.657Z,17.97
2018-11-05T12:54:38.348Z,17.96
2018-11-05T12:57:05.941Z,17.95
2018-11-05T12:59:33.744Z,17.95
2018-11-05T13:02:01.360Z,17.94
2018-11-05T13:04:29.058Z,17.95
2018-11-05T13:06:56.785Z,17.96
2018-11-05T13:09:24.402Z,17.96
2018-11-05T13:11:52.044Z,17.95
2018-11-05T13:14:20.368Z,17.95
2018-11-05T13:16:48.030Z,17.94
2018-11-05T13:19:15.661Z,17.93
2018-11-05T13:21:43.312Z,17.94
2018-11-05T13:24:11.123Z,17.94
2018-11-05T13:26:38.741Z,17.94
2018-11-05T13:29:06.385Z,17.95
2018-11-05T13:31:34.136Z,17.96
2018-11-05T13:34:01.854Z,17.96
2018-11-05T13:36:29.532Z,17.95
2018-11-05T13:38:57.148Z,17.96
2018-11-05T13:41:24.798Z,17.94
2018-11-05T13:43:52.420Z,17.94
2018-11-05T13:46:20.272Z,17.93
2018-11-05T13:48:48.235Z,17.95
2018-11-05T13:51:15.371Z,17.95
2018-11-05T13:53:42.968Z,17.95
2018-11-05T13:56:10.624Z,17.94
2018-11-05T13:58:38.284Z,17.94
2018-11-05T14:01:05.984Z,17.94
2018-11-05T14:03:33.696Z,17.95
2018-11-05T14:06:01.328Z,17.94
2018-11-05T14:08:28.991Z,17.94
2018-11-05T14:10:56.722Z,17.96
2018-11-05T14:13:24.364Z,17.95
2018-11-05T14:15:51.988Z,17.94
2018-11-05T14:18:19.776Z,17.96
2018-11-05T14:20:47.411Z,17.95
2018-11-05T14:23:15.056Z,17.95
2018-11-05T14:25:42.926Z,17.95
2018-11-05T14:28:10.676Z,17.95
2018-11-05T14:30:38.103Z,17.94
2018-11-05T14:33:05.758Z,17.92
2018-11-05T14:35:33.485Z,17.94
2018-11-05T14:38:01.165Z,17.93
2018-11-05T14:40:28.780Z,17.94
2018-11-05T14:42:56.535Z,17.93
2018-11-05T14:45:24.184Z,17.93
2018-11-05T14:47:52.199Z,17.95
2018-11-05T14:50:21.226Z,17.94
2018-11-05T14:52:48.882Z,17.93
2018-11-05T14:55:17.977Z,17.90
2018-11-05T14:57:46.689Z,17.90
2018-11-05T15:00:17.064Z,17.90
2018-11-05T15:02:45.424Z,17.90
2018-11-05T15:05:13.630Z,17.87
2018-11-05T15:07:42.256Z,17.90
2018-11-05T15:10:13.062Z,17.89
2018-11-05T15:12:40.869Z,17.89
2018-11-05T15:15:09.729Z,17.86
2018-11-05T15:17:37.401Z,17.90
2018-11-05T15:20:07.825Z,17.91
2018-11-05T15:22:35.538Z,17.91
2018-11-05T15:25:03.260Z,17.91
2018-11-05T15:27:30.893Z,17.92
2018-11-05T15:29:58.539Z,17.91
2018-11-05T15:32:26.148Z,17.92
2018-11-05T15:34:53.747Z,17.92
2018-11-05T15:37:21.393Z,17.92
2018-11-05T15:39:48.967Z,17.92
2018-11-05T15:42:16.613Z,17.92
2018-11-05T15:44:44.254Z,17.91
2018-11-05T15:47:11.882Z,17.91
2018-11-05T15:49:39.503Z,17.91
2018-11-05T15:52:07.323Z,17.92
2018-11-05T15:54:35.046Z,17.91
2018-11-05T15:57:02.558Z,17.92
2018-11-05T15:59:30.108Z,17.93
2018-11-05T16:02:02.261Z,17.93
2018-11-05T16:04:30.005Z,17.93
2018-11-05T16:06:57.560Z,17.92
2018-11-05T16:09:25.258Z,17.92
2018-11-05T16:11:52.796Z,17.93
2018-11-05T16:14:20.457Z,17.92
2018-11-05T16:16:48.091Z,17.91
2018-11-05T16:19:15.860Z,17.92
2018-11-05T16:21:43.444Z,17.92
2018-11-05T16:24:11.215Z,17.92
2018-11-05T16:26:38.878Z,17.89
2018-11-05T16:29:06.476Z,17.93
2018-11-05T16:31:34.136Z,17.91
2018-11-05T16:34:01.730Z,17.89
2018-11-05T16:36:29.428Z,17.89
2018-11-05T16:38:57.064Z,17.90
2018-11-05T16:41:24.754Z,17.88
2018-11-05T16:43:52.403Z,17.87
2018-11-05T16:46:20.042Z,17.87
2018-11-05T16:48:47.653Z,17.87
2018-11-05T16:51:15.280Z,17.89
2018-11-05T16:53:42.990Z,17.89
2018-11-05T16:56:10.619Z,17.88
2018-11-05T16:58:38.238Z,17.88
2018-11-05T17:01:06.086Z,17.88
2018-11-05T17:03:33.621Z,17.90
2018-11-05T17:06:01.264Z,17.90
2018-11-05T17:08:28.855Z,17.90
2018-11-05T17:10:56.428Z,17.90
2018-11-05T17:13:24.212Z,17.90
2018-11-05T17:15:51.803Z,17.91
2018-11-05T17:18:19.480Z,17.91
2018-11-05T17:20:47.077Z,17.91
2018-11-05T17:23:14.870Z,17.90
2018-11-05T17:25:42.519Z,17.91
2018-11-05T17:28:16.904Z,17.91
2018-11-05T17:30:44.539Z,17.92
2018-11-05T17:33:12.163Z,17.93
2018-11-05T17:35:39.745Z,17.91
2018-11-05T17:38:07.331Z,17.92
2018-11-05T17:40:34.965Z,17.90
2018-11-05T17:43:02.560Z,17.91
2018-11-05T17:45:30.206Z,17.92
2018-11-05T17:47:57.781Z,17.93
2018-11-05T17:50:25.365Z,17.93
2018-11-05T17:52:52.949Z,17.93
2018-11-05T17:55:20.552Z,17.93
2018-11-05T17:57:48.775Z,17.95
2018-11-05T18:00:18.525Z,17.93
2018-11-05T18:02:46.160Z,17.94
2018-11-05T18:05:14.130Z,17.94
2018-11-05T18:07:42.123Z,17.94
2018-11-05T18:10:09.718Z,17.94
2018-11-05T18:12:37.360Z,17.94
2018-11-05T18:15:07.433Z,17.94
2018-11-05T18:17:35.168Z,17.94
2018-11-05T18:20:02.859Z,17.94
2018-11-05T18:22:30.655Z,17.94
2018-11-05T18:24:58.222Z,17.94
2018-11-05T18:27:25.899Z,17.92
2018-11-05T18:29:53.517Z,17.93
2018-11-05T18:32:21.778Z,17.89
2018-11-05T18:34:51.157Z,17.92
2018-11-05T18:37:18.796Z,17.91
2018-11-05T18:39:46.920Z,17.93
2018-11-05T18:42:14.573Z,17.94
2018-11-05T18:44:42.197Z,17.94
2018-11-05T18:47:10.688Z,17.93
2018-11-05T18:49:38.312Z,17.93
2018-11-05T18:52:06.880Z,17.91
2018-11-05T18:54:34.517Z,17.93
2018-11-05T18:57:02.293Z,17.93
2018-11-05T18:59:29.888Z,17.92
2018-11-05T19:01:57.463Z,17.91
2018-11-05T19:04:25.108Z,17.90
2018-11-05T19:06:52.742Z,17.93
2018-11-05T19:09:20.369Z,17.94
2018-11-05T19:11:47.974Z,17.93
2018-11-05T19:14:15.651Z,17.95
2018-11-05T19:16:43.257Z,17.93
2018-11-05T19:19:10.894Z,17.93
2018-11-05T19:21:38.499Z,17.93
2018-11-05T19:24:06.301Z,17.93
2018-11-05T19:26:33.864Z,17.93
2018-11-05T19:29:01.631Z,17.93
2018-11-05T19:31:29.224Z,17.94
2018-11-05T19:33:56.892Z,17.95
2018-11-05T19:36:24.520Z,17.94
2018-11-05T19:38:52.148Z,17.95
2018-11-05T19:41:19.794Z,17.94
2018-11-05T19:43:47.375Z,17.91
2018-11-05T19:46:14.931Z,17.88
2018-11-05T19:48:42.704Z,17.91
2018-11-05T19:51:10.367Z,17.90
2018-11-05T19:53:38.040Z,17.90
2018-11-05T19:56:06.448Z,17.90
2018-11-05T19:58:34.003Z,17.89
2018-11-05T20:01:01.617Z,17.87
2018-11-05T20:03:29.180Z,17.87
2018-11-05T20:05:56.902Z,17.85
2018-11-05T20:08:24.566Z,17.87
2018-11-05T20:10:52.180Z,17.87
2018-11-05T20:13:19.783Z,17.87
2018-11-05T20:15:47.528Z,17.87
2018-11-05T20:18:15.085Z,17.85
2018-11-05T20:20:42.774Z,17.85
2018-11-05T20:23:10.325Z,17.83
2018-11-05T20:25:38.023Z,17.79
2018-11-05T20:28:05.718Z,17.79
2018-11-05T20:30:33.327Z,17.78
2018-11-05T20:33:01.217Z,17.79
2018-11-05T20:35:28.838Z,17.78
2018-11-05T20:37:56.435Z,17.77
2018-11-05T20:40:24.134Z,17.80
2018-11-05T20:42:52.461Z,17.81
2018-11-05T20:45:21.061Z,17.82
2018-11-05T20:47:48.672Z,17.84
2018-11-05T20:50:16.833Z,17.81
2018-11-05T20:52:44.948Z,17.87
2018-11-05T20:55:14.023Z,17.88
2018-11-05T20:57:42.040Z,17.90
2018-11-05T21:00:12.456Z,17.88
2018-11-05T21:02:40.949Z,17.88
2018-11-05T21:05:09.003Z,17.89
2018-11-05T21:07:36.902Z,17.88
2018-11-05T21:10:06.845Z,17.87
2018-11-05T21:12:34.471Z,17.89
2018-11-05T21:15:02.369Z,17.90
2018-11-05T21:17:30.069Z,17.87
2018-11-05T21:19:57.913Z,17.84
2018-11-05T21:22:25.831Z,17.83
2018-11-05T21:24:53.583Z,17.83
2018-11-05T21:27:21.153Z,17.82
2018-11-05T21:29:49.051Z,17.82
2018-11-05T21:32:16.937Z,17.83
2018-11-05T21:34:44.574Z,17.85
2018-11-05T21:37:12.382Z,17.81
2018-11-05T21:39:39.986Z,17.80
2018-11-05T21:42:07.965Z,17.83
2018-11-05T21:44:36.375Z,17.82
2018-11-05T21:47:04.189Z,17.82
2018-11-05T21:49:31.948Z,17.79
2018-11-05T21:51:59.583Z,17.78
2018-11-05T21:54:27.723Z,17.77
2018-11-05T21:56:55.564Z,17.76
2018-11-05T21:59:23.177Z,17.77
2018-11-05T22:01:51.256Z,17.77
2018-11-05T22:04:19.296Z,17.77
2018-11-05T22:06:47.318Z,17.75
2018-11-05T22:09:14.937Z,17.75
2018-11-05T22:11:42.866Z,17.74
2018-11-05T22:14:10.732Z,17.74
2018-11-05T22:16:38.457Z,17.74
2018-11-05T22:19:06.507Z,17.68
2018-11-05T22:21:34.396Z,17.72
2018-11-05T22:24:02.015Z,17.72
2018-11-05T22:26:30.045Z,17.72
2018-11-05T22:28:57.751Z,17.70
2018-11-05T22:31:25.580Z,17.69
2018-11-05T22:33:53.644Z,17.68
2018-11-05T22:36:21.277Z,17.68
2018-11-05T22:38:49.068Z,17.66
2018-11-05T22:41:17.021Z,17.67
2018-11-05T22:43:44.620Z,17.66
2018-11-05T22:46:12.655Z,17.66
2018-11-05T22:48:40.544Z,17.63
2018-11-05T22:51:08.275Z,17.65
2018-11-05T22:53:36.392Z,17.65
2018-11-05T22:56:04.099Z,17.63
2018-11-05T22:58:31.757Z,17.63
2018-11-05T23:01:13.932Z,17.62
2018-11-05T23:03:41.904Z,17.65
2018-11-05T23:06:16.160Z,17.66
2018-11-05T23:08:44.123Z,17.66
2018-11-05T23:11:12.332Z,17.66
2018-11-05T23:13:40.389Z,17.65
2018-11-05T23:16:08.289Z,17.65
2018-11-05T23:18:36.045Z,17.63
2018-11-05T23:21:04.453Z,17.61
2018-11-05T23:23:32.085Z,17.67
2018-11-05T23:25:59.785Z,17.74
2018-11-05T23:28:28.003Z,17.76
2018-11-05T23:30:55.612Z,17.78
2018-11-05T23:33:23.322Z,17.78
2018-11-05T23:35:50.845Z,17.75
2018-11-05T23:38:18.530Z,17.70
2018-11-05T23:40:46.213Z,17.72
2018-11-05T23:43:13.888Z,17.68
2018-11-05T23:45:41.997Z,17.67
2018-11-05T23:48:09.596Z,17.67
2018-11-05T23:50:37.274Z,17.68
2018-11-05T23:53:05.047Z,17.67
2018-11-05T23:55:32.697Z,17.67
2018-11-05T23:58:00.338Z,17.65
